Aviation Digital Data Service (ADDS)

Output produced by METARs form (1509 UTC 26 July 2014)
found at http://www.aviationweather.gov/adds/metars/
 
KDEN 261458Z 2615/2718 03010KT P6SM SCT130 BKN200 
     FM261900 08008KT P6SM SCT100 BKN150 
     TEMPO 2621/2701 VRB20G35KT -TSRA BKN070CB 
     FM270200 17011KT P6SM SCT080 BKN120 
     FM270400 21010KT P6SM FEW120 BKN200 
     FM271500 03008KT P6SM FEW070 SCT120